• Join FlightAware (Why Join?)
  • Login
  • US Flag 
11:32AM EDT


 

Airport Tracker/Info


-or-


 

Live Flight TrackerFlight Track Log ✈ N1794X ✈ 22-Jun-2013 ✈ KEYW - KGNV

Flight Track Log - Related Links

Times and Time Zones

All times are in EDT time to prevent confusion due to time zone crossing. See the N1794X flight status page for this flight to view local times or setup timezone preferences in your user account.

Time Position Orientation Groundspeed Altitude Reporting Facility
EDT Latitude Longitude Course Direction KTS MPH feet Rate Location/Type
01:07AM 24.5408 -81.6961 97° East 146 168 1,700  Level Miami Center
01:08AM 24.5667 -81.6722 40° Northeast 106 122 2,500 780 Climbing Miami Center
01:09AM 24.5881 -81.6500 43° Northeast 101 116 3,300 780 Climbing Miami Center
01:10AM 24.6056 -81.6303 46° Northeast 95 109 4,100 780 Climbing Miami Center
01:11AM 24.6083 -81.6053 83° East 84 97 4,900 720 Climbing Miami Center
01:12AM 24.8069 -81.7835 97° East  Level Estimated
01:12AM 24.6114 -81.5803 82° East 79 91 5,600  Level Miami Center
01:13AM 24.6164 -81.5531 79° East 79 91 6,400 660 Climbing Miami Center
01:14AM 24.6172 -81.5278 88° East 85 98 7,000 540 Climbing Miami Center
01:15AM 24.6181 -81.5028 88° East 85 98 7,600 600 Climbing Miami Center
01:16AM 24.6208 -81.4756 84° East 85 98 8,300 660 Climbing Miami Center
01:17AM 24.6281 -81.4483 74° East 85 98 8,900 540 Climbing Miami Center
01:18AM 24.6372 -81.4236 68° East 85 98 9,500 480 Climbing Miami Center
01:19AM 24.6442 -81.3942 75° East 85 98 9,900 240 Climbing Miami Center
01:20AM 24.6494 -81.3578 81° East 102 117 10,000  Climbing Miami Center
01:21AM 24.6633 -81.3147 70° East 120 138 10,000  Level Miami Center
01:22AM 24.6711 -81.2694 79° East 138 159 10,000  Level Miami Center
01:23AM 24.6847 -81.2289 70° East 143 165 10,000  Level Miami Center
01:24AM 24.6922 -81.1833 80° East 143 165 10,000  Level Miami Center
01:25AM 24.7039 -81.1403 73° East 143 165 10,000  Level Miami Center
01:26AM 24.7158 -81.0972 73° East 143 165 10,000  Level Miami Center
01:27AM 24.7253 -81.0519 77° East 143 165 10,000  Level Miami Center
01:28AM 24.7672 -81.0486 North 116 133 10,000  Level Miami Center
01:29AM 24.8106 -81.0639 342° North 123 142 10,000  Level Miami Center
01:30AM 24.8522 -81.0722 350° North 139 160 10,000  Level Miami Center
01:31AM 24.8978 -81.0828 348° North 151 174 10,100  Climbing Miami Center
01:32AM 24.9394 -81.0911 350° North 157 181 10,100  Level Miami Center
01:33AM 24.9828 -81.1019 347° North 157 181 10,100  Level Miami Center
01:34AM 25.0286 -81.1125 348° North 162 186 10,100  Level Miami Center
01:35AM 25.0722 -81.1233 347° North 162 186 10,100  Level Miami Center
01:36AM 25.1156 -81.1364 345° North 162 186 10,100  Level Miami Center
01:37AM 25.1614 -81.1447 351° North 162 186 10,100  Level Miami Center
01:38AM 25.1986 -81.1553 346° North 162 186 10,100  Level Miami Center
01:39AM 25.2422 -81.1658 348° North 162 186 10,100 -60 Level Miami Center
01:40AM 25.2856 -81.1767 347° North 162 186 10,000 -120 Descending Miami Center
01:41AM 25.3311 -81.1897 345° North 162 186 9,900 -60 Descending Miami Center
01:42AM 25.3747 -81.2028 345° North 162 186 9,900  Level Miami Center
01:43AM 25.4203 -81.2136 348° North 162 186 9,900  Level Miami Center
01:44AM 25.4639 -81.2197 353° North 162 186 9,900  Level Miami Center
01:45AM 25.5078 -81.2261 353° North 162 186 9,900  Level Miami Center
01:46AM 25.5511 -81.2367 348° North 162 186 9,900  Level Miami Center
01:47AM 25.5947 -81.2475 347° North 162 186 9,900  Level Miami Center
01:48AM 25.6403 -81.2583 348° North 162 186 9,900  Level Miami Center
01:49AM 25.6839 -81.2692 347° North 162 186 9,900  Level Miami Center
01:50AM 25.7275 -81.2800 347° North 162 186 9,900  Level Miami Center
01:51AM 25.7689 -81.2908 347° North 162 186 9,900  Level Miami Center
01:52AM 25.8144 -81.3039 346° North 162 186 9,900  Level Miami Center
01:53AM 25.8581 -81.3125 350° North 162 186 9,900  Level Miami Center
01:54AM 25.9017 -81.3233 347° North 162 186 9,900  Level Miami Center
01:55AM 25.9450 -81.3342 347° North 162 186 9,900  Level Miami Center
01:56AM 25.9928 -81.3453 348° North 162 186 9,900  Level Miami Center
01:57AM 26.0364 -81.3561 347° North 162 186 9,900  Level Miami Center
01:58AM 26.0778 -81.3647 349° North 162 186 9,900  Level Miami Center
01:59AM 26.1211 -81.3778 345° North 162 186 9,900  Level Miami Center
02:00AM 26.1669 -81.3867 350° North 162 186 9,900 -60 Level Miami Center
02:01AM 26.2125 -81.3975 348° North 162 186 9,800 -60 Descending Miami Center
02:02AM 26.2581 -81.4061 350° North 162 186 9,800  Level Miami Center
02:03AM 26.3036 -81.4219 343° North 162 186 9,800  Level Miami Center
02:04AM 26.3514 -81.4306 351° North 162 186 9,800  Level Miami Center
02:05AM 26.3947 -81.4439 345° North 162 186 9,800  Level Miami Center
02:06AM 26.4383 -81.4572 345° North 162 186 9,800  Level Miami Center
02:07AM 26.4817 -81.4683 347° North 162 186 9,800  Level Miami Center
02:08AM 26.5253 -81.4769 350° North 162 186 9,800  Level Miami Center
02:09AM 26.5731 -81.4881 348° North 162 186 9,900  Climbing Miami Center
02:10AM 26.6206 -81.5014 346° North 162 186 9,900  Level Miami Center
02:11AM 26.6619 -81.5125 347° North 162 186 9,900  Level Miami Center
02:12AM 26.7056 -81.5211 350° North 162 186 9,900  Level Miami Center
02:13AM 26.7492 -81.5297 350° North 162 186 9,900  Level Miami Center
02:14AM 26.7986 -81.5433 346° North 162 186 9,900  Level Miami Center
02:15AM 26.8422 -81.5569 344° North 162 186 9,900  Level Miami Center
02:16AM 26.8878 -81.5656 350° North 162 186 9,900  Level Miami Center
02:17AM 26.9292 -81.5767 347° North 162 186 9,900  Level Miami Center
02:18AM 26.9747 -81.5856 350° North 162 186 9,900  Level Miami Center
02:19AM 27.0183 -81.5967 347° North 162 186 9,900  Level Miami Center
02:20AM 27.0617 -81.6100 345° North 162 186 10,000 60 Climbing Miami Center
02:21AM 27.1050 -81.6258 342° North 162 186 10,100  Climbing Miami Center
02:22AM 27.1464 -81.6392 344° North 162 186 10,100 -60 Level Miami Center
02:23AM 27.1917 -81.6550 343° North 162 186 10,000 -60 Descending Miami Center
02:24AM 27.2331 -81.6683 344° North 162 186 10,000  Level Miami Center
02:25AM 27.2744 -81.6817 344° North 162 186 10,000  Level Miami Center
02:27AM 27.3567 -81.6525 17° North 162 186 10,000  Level Miami Center
02:28AM 27.4103 -81.6711 343° North 155 178 10,000  Level Miami Center
02:29AM 27.4542 -81.6731 358° North 155 178 10,100  Climbing Miami Center
02:30AM 27.4975 -81.6842 347° North 155 178 10,100  Level Miami Center
02:31AM 27.5411 -81.6953 347° North 161 185 10,200 -120 Climbing Miami Center
02:32AM 27.5867 -81.7067 348° North 161 185 9,900 -240 Descending Miami Center
02:33AM 27.6361 -81.7206 346° North 161 185 9,800  Descending Miami Center
02:35AM 27.7167 -81.7333 352° North 164 189 10,000 60 Climbing Orlando TRACON
02:36AM 27.7667 -81.7500 344° North 162 186 10,000  Level Orlando TRACON
02:37AM 27.8167 -81.7667 344° North 159 183 10,000 -60 Level Orlando TRACON
02:38AM 27.8500 -81.7833 336° Northwest 166 191 9,900 -60 Descending Orlando TRACON
02:39AM 27.9000 -81.7833 360° North 165 190 9,900  Level Orlando TRACON
02:40AM 27.9500 -81.8000 344° North 164 189 9,900  Level Orlando TRACON
02:41AM 27.9833 -81.8000 360° North 161 185 10,000  Climbing Orlando TRACON
02:42AM 28.0333 -81.8167 344° North 160 184 10,000  Level Orlando TRACON
02:43AM 28.0667 -81.8333 336° Northwest 163 188 10,000  Level Orlando TRACON
02:44AM 28.1167 -81.8667 330° Northwest 162 186 10,000  Level Orlando TRACON
02:45AM 28.1500 -81.8833 336° Northwest 165 190 10,000  Level Orlando TRACON
02:46AM 28.2000 -81.9000 344° North 165 190 10,000  Level Orlando TRACON
02:47AM 28.2333 -81.9167 336° Northwest 162 186 10,100  Climbing Orlando TRACON
02:48AM 28.2833 -81.9167 360° North 162 186 10,100 -60 Level Orlando TRACON
02:49AM 28.3167 -81.9333 336° Northwest 166 191 10,000 -60 Descending Orlando TRACON
02:50AM 28.3667 -81.9333 360° North 165 190 10,000  Level Orlando TRACON
02:51AM 28.4167 -81.9333 360° North 163 188 10,000  Level Orlando TRACON
02:51AM 28.4469 -81.9411 347° North 163 188 10,000  Level Jacksonville Center
02:52AM 28.4742 -81.9433 356° North 161 185 10,000  Level Jacksonville Center
02:53AM 28.5219 -81.9475 356° North 165 190 10,000  Level Jacksonville Center
02:54AM 28.5658 -81.9542 352° North 164 189 10,000  Level Jacksonville Center
02:55AM 28.6119 -81.9633 350° North 162 186 10,000 -60 Level Jacksonville Center
02:56AM 28.6517 -81.9864 333° Northwest 165 190 9,900  Descending Jacksonville Center
02:57AM 28.6917 -82.0097 333° Northwest 165 190 10,000  Climbing Jacksonville Center
02:58AM 28.7397 -82.0258 344° North 163 188 10,000  Level Jacksonville Center
02:59AM 28.7836 -82.0350 350° North 162 186 10,000 -60 Level Jacksonville Center
03:00AM 28.8294 -82.0489 345° North 166 191 9,900 -180 Descending Jacksonville Center
03:01AM 28.8714 -82.0700 336° Northwest 172 198 9,700 -240 Descending Jacksonville Center
03:02AM 28.9133 -82.0886 339° North 170 196 9,500 -600 Descending Jacksonville Center
03:03AM 28.9614 -82.1119 337° Northwest 180 207 8,500 -1,020 Descending Jacksonville Center
03:04AM 29.0117 -82.1256 347° North 190 219 7,500 -1,020 Descending Jacksonville Center
03:05AM 29.0658 -82.1347 352° North 188 216 6,500 -1,020 Descending Jacksonville Center
03:06AM 29.1181 -82.1414 354° North 183 211 5,500 -900 Descending Jacksonville Center
03:07AM 29.1661 -82.1411 360° North 178 205 4,700 -780 Descending Jacksonville Center
03:08AM 29.2100 -82.1597 340° North 166 191 4,000 -1,140 Descending Jacksonville Center
03:09AM 29.2314 -82.2050 298° West 162 186 2,500 -1,140 Descending Jacksonville Center
03:10AM 29.2211 -82.2478 255° West 137 158 1,800 -540 Descending Jacksonville Center
03:11AM 29.1919 -82.2575 196° South 100 115 1,500 -360 Descending Jacksonville Center
03:12AM 29.1647 -82.2553 176° South 86 99 1,100 -480 Descending Jacksonville Center
03:13AM 29.1522 -82.2386 131° Southeast 81 93 600 -360 Descending Jacksonville Center
03:14AM 29.1542 -82.2197 83° East 73 84 400 -120 Descending Jacksonville Center
03:15AM 29.1542 -82.2197 210° Southwest 73 84 400  Level Jacksonville Center
03:17AM 29.1542 -82.2197 210° Southwest 73 84 400  Level Jacksonville Center